createdAt,value
2023-05-24T00:00:50.692Z,7.87
2023-05-24T00:01:50.674Z,7.84
2023-05-24T00:02:50.770Z,7.84
2023-05-24T00:03:50.810Z,7.82
2023-05-24T00:04:50.678Z,7.77
2023-05-24T00:05:50.620Z,7.73
2023-05-24T00:06:50.609Z,7.68
2023-05-24T00:07:50.592Z,7.66
2023-05-24T00:08:50.567Z,7.64
2023-05-24T00:09:50.585Z,7.62
2023-05-24T00:10:50.568Z,7.60
2023-05-24T00:11:50.545Z,7.58
2023-05-24T00:12:50.535Z,7.55
2023-05-24T00:13:50.533Z,7.55
2023-05-24T00:14:50.507Z,7.56
2023-05-24T00:15:50.499Z,7.55
2023-05-24T00:16:50.542Z,7.54
2023-05-24T00:17:50.505Z,7.54
2023-05-24T00:18:50.472Z,7.56
2023-05-24T00:19:50.474Z,7.57
2023-05-24T00:20:50.540Z,7.56
2023-05-24T00:21:50.400Z,7.55
2023-05-24T00:22:50.392Z,7.55
2023-05-24T00:23:50.408Z,7.53
2023-05-24T00:24:50.357Z,7.52
2023-05-24T00:25:50.378Z,7.51
2023-05-24T00:26:50.338Z,7.47
2023-05-24T00:27:50.327Z,7.45
2023-05-24T00:28:50.313Z,7.43
2023-05-24T00:29:50.313Z,7.40
2023-05-24T00:30:50.279Z,7.40
2023-05-24T00:31:50.313Z,7.41
2023-05-24T00:32:50.315Z,7.40
2023-05-24T00:33:50.263Z,7.37
2023-05-24T00:34:50.216Z,7.35
2023-05-24T00:35:50.237Z,7.33
2023-05-24T00:36:50.207Z,7.32
2023-05-24T00:37:50.207Z,7.31
2023-05-24T00:38:50.166Z,7.33
2023-05-24T00:39:50.190Z,7.37
2023-05-24T00:40:50.141Z,7.41
2023-05-24T00:41:50.126Z,7.43
2023-05-24T00:42:50.148Z,7.44
2023-05-24T00:43:50.100Z,7.44
2023-05-24T00:44:50.111Z,7.44
2023-05-24T00:45:50.097Z,7.43
2023-05-24T00:46:50.065Z,7.41
2023-05-24T00:47:50.100Z,7.40
2023-05-24T00:48:50.033Z,7.39
2023-05-24T00:49:50.027Z,7.38
2023-05-24T00:50:50.009Z,7.35
2023-05-24T00:51:50.020Z,7.32
2023-05-24T00:52:49.985Z,7.30
2023-05-24T00:53:49.966Z,7.28
2023-05-24T00:54:49.960Z,7.25
2023-05-24T00:55:49.932Z,7.23
2023-05-24T00:56:49.951Z,7.20
2023-05-24T00:57:49.910Z,7.16
2023-05-24T00:58:49.909Z,7.13
2023-05-24T00:59:49.885Z,7.10
2023-05-24T01:00:49.884Z,7.07
2023-05-24T01:01:49.947Z,7.04
2023-05-24T01:02:49.934Z,7.02
2023-05-24T01:03:49.911Z,6.99
2023-05-24T01:04:49.838Z,6.98
2023-05-24T01:05:49.826Z,6.97
2023-05-24T01:06:49.809Z,6.96
2023-05-24T01:07:49.773Z,6.98
2023-05-24T01:08:49.784Z,6.98
2023-05-24T01:09:49.752Z,6.98
2023-05-24T01:10:49.762Z,6.95
2023-05-24T01:11:49.736Z,6.93
2023-05-24T01:12:49.720Z,6.91
2023-05-24T01:13:49.690Z,6.89
2023-05-24T01:14:49.705Z,6.88
2023-05-24T01:15:49.740Z,6.86
2023-05-24T01:16:49.659Z,6.84
2023-05-24T01:17:49.687Z,6.82
2023-05-24T01:18:49.650Z,6.80
2023-05-24T01:19:49.742Z,6.77
2023-05-24T01:20:49.779Z,6.75
2023-05-24T01:21:49.616Z,6.72
2023-05-24T01:22:49.601Z,6.71
2023-05-24T01:23:49.575Z,6.70
2023-05-24T01:24:49.556Z,6.70
2023-05-24T01:25:49.573Z,6.69
2023-05-24T01:26:49.522Z,6.68
2023-05-24T01:27:49.500Z,6.68
2023-05-24T01:28:49.489Z,6.68
2023-05-24T01:29:49.494Z,6.67
2023-05-24T01:30:49.503Z,6.66
2023-05-24T01:31:49.481Z,6.63
2023-05-24T01:32:49.479Z,6.64
2023-05-24T01:33:49.435Z,6.68
2023-05-24T01:34:49.441Z,6.75
2023-05-24T01:35:49.419Z,6.80
2023-05-24T01:36:49.388Z,6.82
2023-05-24T01:37:49.386Z,6.85
2023-05-24T01:38:49.371Z,6.90
2023-05-24T01:39:49.384Z,6.92
2023-05-24T01:40:49.368Z,6.95
2023-05-24T01:41:49.326Z,6.96
2023-05-24T01:42:49.335Z,6.96
2023-05-24T01:43:49.298Z,6.94
2023-05-24T01:44:49.314Z,6.91
2023-05-24T01:45:49.274Z,6.87
2023-05-24T01:46:49.300Z,6.80
2023-05-24T01:47:49.292Z,6.75
2023-05-24T01:48:49.226Z,6.70
2023-05-24T01:49:49.282Z,6.66
2023-05-24T01:50:49.213Z,6.62
2023-05-24T01:51:49.196Z,6.59
2023-05-24T01:52:48.678Z,6.56
2023-05-24T01:53:49.148Z,6.53
2023-05-24T01:54:49.166Z,6.50
2023-05-24T01:55:49.131Z,6.49
2023-05-24T01:56:49.128Z,6.47
2023-05-24T01:57:49.105Z,6.44
2023-05-24T01:58:49.098Z,6.43
2023-05-24T01:59:47.919Z,6.42
2023-05-24T02:00:49.093Z,6.40
2023-05-24T02:01:49.080Z,6.39
2023-05-24T02:02:49.155Z,6.37
2023-05-24T02:03:49.049Z,6.35
2023-05-24T02:04:49.037Z,6.34
2023-05-24T02:05:49.013Z,6.31
2023-05-24T02:06:48.993Z,6.29
2023-05-24T02:07:48.967Z,6.28
2023-05-24T02:08:48.966Z,6.27
2023-05-24T02:09:48.981Z,6.28
2023-05-24T02:10:48.938Z,6.28
2023-05-24T02:11:48.965Z,6.27
2023-05-24T02:12:48.902Z,6.26
2023-05-24T02:13:48.908Z,6.25
2023-05-24T02:14:48.893Z,6.23
2023-05-24T02:15:48.877Z,6.22
2023-05-24T02:16:48.926Z,6.20
2023-05-24T02:17:48.913Z,6.19
2023-05-24T02:18:48.842Z,6.17
2023-05-24T02:19:48.844Z,6.15
2023-05-24T02:20:48.822Z,6.13
2023-05-24T02:21:48.791Z,6.13
2023-05-24T02:22:48.792Z,6.13
2023-05-24T02:23:48.771Z,6.11
2023-05-24T02:24:48.756Z,6.09
2023-05-24T02:25:48.732Z,6.10
2023-05-24T02:26:48.728Z,6.11
2023-05-24T02:27:48.740Z,6.12
2023-05-24T02:28:47.445Z,6.13
2023-05-24T02:29:48.691Z,6.15
2023-05-24T02:30:48.721Z,6.17
2023-05-24T02:31:48.646Z,6.21
2023-05-24T02:32:48.731Z,6.24
2023-05-24T02:33:48.644Z,6.24
2023-05-24T02:34:48.626Z,6.24
2023-05-24T02:35:48.628Z,6.25
2023-05-24T02:36:48.589Z,6.26
2023-05-24T02:37:48.587Z,6.25
2023-05-24T02:38:48.574Z,6.25
2023-05-24T02:39:48.540Z,6.26
2023-05-24T02:40:48.539Z,6.25
2023-05-24T02:41:48.520Z,6.26
2023-05-24T02:42:48.518Z,6.27
2023-05-24T02:43:48.573Z,6.27
2023-05-24T02:44:48.507Z,6.28
2023-05-24T02:45:48.478Z,6.28
2023-05-24T02:46:48.582Z,6.31
2023-05-24T02:47:48.598Z,6.34
2023-05-24T02:48:48.549Z,6.38
2023-05-24T02:49:48.425Z,6.42
2023-05-24T02:50:48.411Z,6.47
2023-05-24T02:51:48.413Z,6.49
2023-05-24T02:52:48.421Z,6.50
2023-05-24T02:53:48.360Z,6.50
2023-05-24T02:54:48.345Z,6.51
2023-05-24T02:55:48.346Z,6.51
2023-05-24T02:56:48.345Z,6.51
2023-05-24T02:57:48.317Z,6.51
2023-05-24T02:58:48.308Z,6.50
2023-05-24T02:59:48.309Z,6.51
2023-05-24T03:00:48.289Z,6.51
2023-05-24T03:01:48.304Z,6.51
2023-05-24T03:02:48.354Z,6.52
2023-05-24T03:03:48.339Z,6.53
2023-05-24T03:04:48.223Z,6.53
2023-05-24T03:05:48.193Z,6.54
2023-05-24T03:06:48.217Z,6.56
2023-05-24T03:07:48.183Z,6.58
2023-05-24T03:08:48.159Z,6.60
2023-05-24T03:09:48.160Z,6.62
2023-05-24T03:10:48.175Z,6.63
2023-05-24T03:11:48.131Z,6.64
2023-05-24T03:12:48.109Z,6.65
2023-05-24T03:13:47.578Z,6.66
2023-05-24T03:14:48.086Z,6.68
2023-05-24T03:15:48.131Z,6.69
2023-05-24T03:16:48.042Z,6.71
2023-05-24T03:17:48.081Z,6.72
2023-05-24T03:18:48.039Z,6.74
2023-05-24T03:19:48.025Z,6.75
2023-05-24T03:20:48.033Z,6.76
2023-05-24T03:21:48.005Z,6.76
2023-05-24T03:22:47.974Z,6.75
2023-05-24T03:23:47.979Z,6.78
2023-05-24T03:24:47.967Z,6.80
2023-05-24T03:25:47.953Z,6.81
2023-05-24T03:26:47.936Z,6.82
2023-05-24T03:27:47.902Z,6.82
2023-05-24T03:28:47.934Z,6.84
2023-05-24T03:29:47.903Z,6.84
2023-05-24T03:30:47.883Z,6.84
2023-05-24T03:31:47.903Z,6.85
2023-05-24T03:32:47.883Z,6.86
2023-05-24T03:33:47.855Z,6.88
2023-05-24T03:34:47.842Z,6.91
2023-05-24T03:35:47.809Z,6.96
2023-05-24T03:36:47.795Z,7.01
2023-05-24T03:37:47.785Z,7.03
2023-05-24T03:38:47.777Z,7.03
2023-05-24T03:39:47.774Z,7.02
2023-05-24T03:40:47.749Z,7.01
2023-05-24T03:41:47.731Z,7.00
2023-05-24T03:42:47.717Z,7.00
2023-05-24T03:43:47.702Z,7.00
2023-05-24T03:44:47.688Z,7.00
2023-05-24T03:45:47.713Z,7.00
2023-05-24T03:46:47.663Z,6.99
2023-05-24T03:47:47.709Z,6.98
2023-05-24T03:48:47.659Z,6.97
2023-05-24T03:49:47.616Z,6.95
2023-05-24T03:50:47.622Z,6.92
2023-05-24T03:51:47.580Z,6.90
2023-05-24T03:52:47.570Z,6.88
2023-05-24T03:53:47.562Z,6.88
2023-05-24T03:54:45.836Z,6.88
2023-05-24T03:55:47.552Z,6.87
2023-05-24T03:56:47.524Z,6.86
2023-05-24T03:57:47.504Z,6.86
2023-05-24T03:58:47.511Z,6.88
2023-05-24T03:59:47.504Z,6.90
2023-05-24T04:00:47.473Z,6.93
2023-05-24T04:01:47.511Z,6.95
2023-05-24T04:02:47.525Z,6.97
2023-05-24T04:03:47.496Z,6.99
2023-05-24T04:04:47.407Z,6.99
2023-05-24T04:05:47.394Z,6.96
2023-05-24T04:06:47.393Z,6.95
2023-05-24T04:07:47.384Z,6.95
2023-05-24T04:08:47.362Z,6.94
2023-05-24T04:09:47.361Z,6.94
2023-05-24T04:10:47.352Z,6.95
2023-05-24T04:11:47.317Z,6.95
2023-05-24T04:12:47.328Z,6.96
2023-05-24T04:13:47.302Z,6.98
2023-05-24T04:14:47.273Z,7.00
2023-05-24T04:15:47.265Z,7.00
2023-05-24T04:16:47.456Z,7.00
2023-05-24T04:17:47.386Z,7.00
2023-05-24T04:18:47.302Z,6.98
2023-05-24T04:19:47.205Z,6.97
2023-05-24T04:20:47.190Z,6.96
2023-05-24T04:21:47.163Z,6.96
2023-05-24T04:22:47.176Z,6.98
2023-05-24T04:23:47.145Z,7.01
2023-05-24T04:24:47.187Z,7.05
2023-05-24T04:25:47.119Z,7.08
2023-05-24T04:26:47.327Z,7.13
2023-05-24T04:27:47.110Z,7.17
2023-05-24T04:28:47.096Z,7.22
2023-05-24T04:29:47.066Z,7.26
2023-05-24T04:30:47.061Z,7.30
2023-05-24T04:31:47.102Z,7.34
2023-05-24T04:32:47.043Z,7.40
2023-05-24T04:33:47.002Z,7.47
2023-05-24T04:34:47.005Z,7.52
2023-05-24T04:35:46.995Z,7.58
2023-05-24T04:36:46.993Z,7.64
2023-05-24T04:37:46.964Z,7.72
2023-05-24T04:38:46.961Z,7.79
2023-05-24T04:39:46.939Z,7.88
2023-05-24T04:40:46.938Z,7.97
2023-05-24T04:41:46.932Z,8.07
2023-05-24T04:42:46.921Z,8.19
2023-05-24T04:43:46.894Z,8.31
2023-05-24T04:44:46.875Z,8.46
2023-05-24T04:45:46.878Z,8.59
2023-05-24T04:46:46.890Z,8.75
2023-05-24T04:47:46.853Z,8.87
2023-05-24T04:48:46.819Z,9.03
2023-05-24T04:49:46.813Z,9.20
2023-05-24T04:50:46.806Z,9.33
2023-05-24T04:51:46.809Z,9.42
2023-05-24T04:52:46.779Z,9.51
2023-05-24T04:53:46.769Z,9.62
2023-05-24T04:54:46.736Z,9.71
2023-05-24T04:55:46.751Z,9.75
2023-05-24T04:56:46.707Z,9.87
2023-05-24T04:57:46.698Z,10.00
2023-05-24T04:58:46.686Z,10.13
2023-05-24T04:59:46.678Z,10.23
2023-05-24T05:00:46.677Z,10.31
2023-05-24T05:01:46.669Z,10.42
2023-05-24T05:02:46.704Z,10.51
2023-05-24T05:03:46.774Z,10.56
2023-05-24T05:04:46.598Z,10.66
2023-05-24T05:05:46.093Z,10.79
2023-05-24T05:06:46.575Z,10.88
2023-05-24T05:07:46.563Z,10.95
2023-05-24T05:08:46.554Z,10.99
2023-05-24T05:09:46.539Z,11.09
2023-05-24T05:10:46.507Z,11.14
2023-05-24T05:11:46.507Z,11.18
2023-05-24T05:12:46.485Z,11.29
2023-05-24T05:13:46.477Z,11.44
2023-05-24T05:14:46.463Z,11.55
2023-05-24T05:15:46.449Z,11.63
2023-05-24T05:16:46.718Z,11.67
2023-05-24T05:17:46.440Z,11.77
2023-05-24T05:18:46.426Z,11.83
2023-05-24T05:19:45.909Z,11.92
2023-05-24T05:20:46.720Z,11.96
2023-05-24T05:21:46.365Z,12.06
2023-05-24T05:22:46.345Z,12.29
2023-05-24T05:23:46.351Z,12.47
2023-05-24T05:24:46.331Z,12.58
2023-05-24T05:25:46.315Z,12.69
2023-05-24T05:26:46.281Z,12.71
2023-05-24T05:27:46.278Z,12.57
2023-05-24T05:28:46.288Z,12.53
2023-05-24T05:29:46.260Z,12.44
2023-05-24T05:30:46.233Z,12.42
2023-05-24T05:31:46.235Z,12.46
2023-05-24T05:32:46.264Z,12.57
2023-05-24T05:33:46.201Z,12.59
2023-05-24T05:34:46.173Z,12.48
2023-05-24T05:35:46.156Z,12.20
2023-05-24T05:36:46.144Z,11.89
2023-05-24T05:37:46.203Z,11.64
2023-05-24T05:38:46.123Z,11.46
2023-05-24T05:39:46.110Z,11.32
2023-05-24T05:40:46.097Z,11.16
2023-05-24T05:41:46.321Z,10.97
2023-05-24T05:42:46.073Z,10.84
2023-05-24T05:43:46.062Z,10.78
2023-05-24T05:44:46.047Z,10.75
2023-05-24T05:45:46.057Z,10.73
2023-05-24T05:46:46.096Z,10.72
2023-05-24T05:47:46.040Z,10.70
2023-05-24T05:48:46.612Z,10.66
2023-05-24T05:49:45.996Z,10.60
2023-05-24T05:50:45.964Z,10.55
2023-05-24T05:51:45.951Z,10.53
2023-05-24T05:52:45.964Z,10.55
2023-05-24T05:53:45.927Z,10.60
2023-05-24T05:54:45.946Z,10.60
2023-05-24T05:55:45.900Z,10.62
2023-05-24T05:56:45.886Z,10.64
2023-05-24T05:57:45.894Z,10.66
2023-05-24T05:58:45.985Z,10.70
2023-05-24T05:59:45.856Z,10.69
2023-05-24T06:00:45.832Z,10.68
2023-05-24T06:01:45.832Z,10.63
2023-05-24T06:02:45.860Z,10.61
2023-05-24T06:03:45.569Z,10.62
2023-05-24T06:04:46.110Z,10.65
2023-05-24T06:05:45.923Z,10.68
2023-05-24T06:06:44.983Z,10.72
2023-05-24T06:07:45.737Z,10.77
2023-05-24T06:08:45.719Z,10.81
2023-05-24T06:09:45.699Z,10.85
2023-05-24T06:10:45.699Z,10.84
2023-05-24T06:11:45.718Z,10.85
2023-05-24T06:12:45.663Z,10.88
2023-05-24T06:13:45.656Z,10.95
2023-05-24T06:14:45.627Z,11.01
2023-05-24T06:15:45.653Z,11.13
2023-05-24T06:16:44.728Z,11.30
2023-05-24T06:17:45.622Z,11.56
2023-05-24T06:18:57.089Z,11.90
2023-05-24T06:19:46.564Z,12.35
2023-05-24T06:20:46.025Z,12.80
2023-05-24T06:21:45.066Z,13.20
2023-05-24T06:22:45.513Z,13.67
2023-05-24T06:23:45.525Z,13.93
2023-05-24T06:24:45.493Z,14.14
2023-05-24T06:25:45.722Z,14.31
2023-05-24T06:26:45.468Z,14.63
2023-05-24T06:27:45.458Z,14.84
2023-05-24T06:28:45.468Z,15.00
2023-05-24T06:29:45.451Z,15.11
2023-05-24T06:30:45.702Z,15.22
2023-05-24T06:31:45.429Z,15.42
2023-05-24T06:32:45.420Z,15.58
2023-05-24T06:33:52.496Z,15.91
2023-05-24T06:34:46.380Z,16.23
2023-05-24T06:35:45.355Z,16.41
2023-05-24T06:36:45.335Z,16.59
2023-05-24T06:37:45.319Z,16.56
2023-05-24T06:38:45.302Z,16.73
2023-05-24T06:39:45.301Z,16.79
2023-05-24T06:40:45.276Z,16.50
2023-05-24T06:41:45.257Z,16.38
2023-05-24T06:42:45.264Z,15.73
2023-05-24T06:43:45.239Z,15.43
2023-05-24T06:44:45.224Z,15.44
2023-05-24T06:45:45.210Z,15.47
2023-05-24T06:46:45.208Z,15.35
2023-05-24T06:47:45.247Z,15.38
2023-05-24T06:48:45.372Z,15.59
2023-05-24T06:49:45.185Z,15.78
2023-05-24T06:50:45.283Z,15.97
2023-05-24T06:51:44.389Z,16.43
2023-05-24T06:52:45.117Z,16.74
2023-05-24T06:53:45.122Z,16.94
2023-05-24T06:54:45.088Z,17.19
2023-05-24T06:55:45.082Z,17.55
2023-05-24T06:56:45.063Z,17.79
2023-05-24T06:57:45.054Z,17.68
2023-05-24T06:58:45.057Z,17.62
2023-05-24T06:59:45.058Z,17.75
2023-05-24T07:00:45.315Z,18.02
2023-05-24T07:01:45.173Z,18.11
2023-05-24T07:02:45.053Z,18.17
2023-05-24T07:03:44.970Z,18.35
2023-05-24T07:04:44.962Z,18.41
2023-05-24T07:05:44.936Z,18.56
2023-05-24T07:06:44.992Z,18.63
2023-05-24T07:07:44.448Z,18.35
2023-05-24T07:08:44.918Z,18.14
2023-05-24T07:09:44.896Z,18.05
2023-05-24T07:10:45.086Z,18.13
2023-05-24T07:11:44.920Z,18.35
2023-05-24T07:12:44.858Z,18.72
2023-05-24T07:13:44.842Z,18.80
2023-05-24T07:14:44.938Z,18.76
2023-05-24T07:15:44.810Z,18.84
2023-05-24T07:16:44.858Z,18.99
2023-05-24T07:17:44.817Z,19.05
2023-05-24T07:18:44.781Z,18.88
2023-05-24T07:19:44.767Z,18.64
2023-05-24T07:20:45.402Z,18.45
2023-05-24T07:21:44.724Z,18.52
2023-05-24T07:22:44.742Z,18.64
2023-05-24T07:23:44.689Z,18.42
2023-05-24T07:24:44.691Z,18.15
2023-05-24T07:25:44.667Z,18.13
2023-05-24T07:26:44.682Z,18.05
2023-05-24T07:27:44.668Z,18.15
2023-05-24T07:28:44.628Z,18.11
2023-05-24T07:29:46.944Z,18.04
2023-05-24T07:30:44.623Z,18.20
2023-05-24T07:31:44.653Z,18.57
2023-05-24T07:32:44.706Z,18.52
2023-05-24T07:33:44.560Z,18.12
2023-05-24T07:34:44.541Z,17.85
2023-05-24T07:35:44.525Z,17.86
2023-05-24T07:36:44.550Z,17.95
2023-05-24T07:37:44.500Z,17.93
2023-05-24T07:38:44.539Z,17.97
2023-05-24T07:39:44.490Z,18.09
2023-05-24T07:40:44.676Z,18.34
2023-05-24T07:41:44.470Z,18.50
2023-05-24T07:42:44.432Z,18.66
2023-05-24T07:43:44.449Z,18.81
2023-05-24T07:44:44.398Z,18.82
2023-05-24T07:45:44.529Z,18.82
2023-05-24T07:46:44.468Z,18.88
2023-05-24T07:47:44.405Z,18.93
2023-05-24T07:48:44.348Z,18.97
2023-05-24T07:49:44.350Z,19.07
2023-05-24T07:50:44.472Z,19.18
2023-05-24T07:51:44.335Z,19.22
2023-05-24T07:52:44.299Z,19.26
2023-05-24T07:53:44.290Z,19.17
2023-05-24T07:54:44.290Z,19.17
2023-05-24T07:55:44.451Z,19.41
2023-05-24T07:56:44.253Z,19.41
2023-05-24T07:57:44.254Z,19.50
2023-05-24T07:58:44.224Z,19.48
2023-05-24T07:59:44.229Z,19.48
2023-05-24T08:00:42.310Z,19.34
2023-05-24T08:01:44.192Z,19.48
2023-05-24T08:02:44.348Z,19.58
2023-05-24T08:03:44.326Z,19.28
2023-05-24T08:04:44.155Z,19.14
2023-05-24T08:05:44.333Z,19.03
2023-05-24T08:06:44.151Z,19.06
2023-05-24T08:07:44.135Z,19.25
2023-05-24T08:08:44.130Z,19.28
2023-05-24T08:09:44.097Z,19.15
2023-05-24T08:10:44.082Z,19.26
2023-05-24T08:11:44.083Z,19.63
2023-05-24T08:12:44.038Z,19.81
2023-05-24T08:13:44.047Z,19.81
2023-05-24T08:14:44.049Z,20.06
2023-05-24T08:15:44.287Z,20.04
2023-05-24T08:16:44.091Z,20.09
2023-05-24T08:17:43.997Z,20.23
2023-05-24T08:18:43.977Z,20.42
2023-05-24T08:19:43.946Z,20.29
2023-05-24T08:20:43.977Z,20.39
2023-05-24T08:21:43.919Z,20.44
2023-05-24T08:22:43.978Z,20.52
2023-05-24T08:23:43.916Z,20.31
2023-05-24T08:24:43.871Z,20.02
2023-05-24T08:25:44.175Z,20.01
2023-05-24T08:26:43.871Z,19.89
2023-05-24T08:27:43.908Z,20.00
2023-05-24T08:28:43.861Z,20.15
2023-05-24T08:29:43.830Z,20.23
2023-05-24T08:30:43.816Z,20.21
2023-05-24T08:31:43.890Z,20.56
2023-05-24T08:32:43.833Z,20.74
2023-05-24T08:33:43.758Z,20.84
2023-05-24T08:34:43.799Z,20.96
2023-05-24T08:35:43.996Z,21.03
2023-05-24T08:36:43.731Z,20.98
2023-05-24T08:37:43.729Z,20.56
2023-05-24T08:38:43.691Z,20.22
2023-05-24T08:39:43.680Z,20.27
2023-05-24T08:40:43.737Z,20.46
2023-05-24T08:41:47.399Z,20.70
2023-05-24T08:42:44.680Z,20.66
2023-05-24T08:43:43.623Z,20.56
2023-05-24T08:44:43.603Z,20.80
2023-05-24T08:45:43.868Z,21.13
2023-05-24T08:46:43.659Z,21.25
2023-05-24T08:47:43.659Z,21.26
2023-05-24T08:48:43.597Z,21.11
2023-05-24T08:49:43.548Z,20.86
2023-05-24T08:50:43.546Z,20.99
2023-05-24T08:51:43.550Z,21.40
2023-05-24T08:52:43.519Z,21.22
2023-05-24T08:53:43.516Z,20.81
2023-05-24T08:54:43.501Z,20.50
2023-05-24T08:55:43.881Z,20.47
2023-05-24T08:56:43.484Z,20.56
2023-05-24T08:57:43.460Z,20.82
2023-05-24T08:58:43.451Z,21.20
2023-05-24T08:59:43.446Z,21.66
2023-05-24T09:00:43.424Z,21.83
2023-05-24T09:01:43.402Z,22.00
2023-05-24T09:02:43.492Z,22.34
2023-05-24T09:03:43.439Z,22.56
2023-05-24T09:04:43.388Z,22.50
2023-05-24T09:05:43.616Z,22.56
2023-05-24T09:06:43.329Z,22.56
2023-05-24T09:07:43.316Z,22.61
2023-05-24T09:08:43.998Z,22.70
2023-05-24T09:09:43.345Z,22.93
2023-05-24T09:10:53.995Z,22.81
2023-05-24T09:11:44.287Z,22.18
2023-05-24T09:12:43.285Z,21.72
2023-05-24T09:13:43.240Z,21.78
2023-05-24T09:14:43.280Z,21.70
2023-05-24T09:15:43.472Z,21.62
2023-05-24T09:16:43.282Z,21.58
2023-05-24T09:17:43.252Z,21.75
2023-05-24T09:18:43.242Z,21.92
2023-05-24T09:19:43.196Z,21.60
2023-05-24T09:20:43.377Z,20.99
2023-05-24T09:21:43.151Z,20.73
2023-05-24T09:22:43.176Z,20.71
2023-05-24T09:23:43.155Z,20.66
2023-05-24T09:24:43.115Z,20.58
2023-05-24T09:25:43.102Z,20.67
2023-05-24T09:26:43.080Z,20.63
2023-05-24T09:27:43.067Z,20.76
2023-05-24T09:28:43.064Z,20.72
2023-05-24T09:29:43.049Z,20.82
2023-05-24T09:30:43.153Z,20.93
2023-05-24T09:31:43.103Z,20.94
2023-05-24T09:32:43.019Z,20.96
2023-05-24T09:33:43.005Z,21.16
2023-05-24T09:34:43.012Z,21.07
2023-05-24T09:35:43.015Z,21.18
2023-05-24T09:36:43.011Z,21.35
2023-05-24T09:37:42.945Z,21.62
2023-05-24T09:38:42.947Z,21.67
2023-05-24T09:39:42.918Z,21.71
2023-05-24T09:40:43.073Z,21.57
2023-05-24T09:41:42.901Z,21.50
2023-05-24T09:42:42.865Z,21.43
2023-05-24T09:43:42.873Z,21.70
2023-05-24T09:44:42.848Z,21.88
2023-05-24T09:45:42.869Z,21.85
2023-05-24T09:46:42.856Z,21.94
2023-05-24T09:47:42.862Z,21.99
2023-05-24T09:48:42.814Z,21.77
2023-05-24T09:49:42.793Z,21.48
2023-05-24T09:50:42.940Z,21.48
2023-05-24T09:51:42.816Z,21.68
2023-05-24T09:52:42.257Z,21.83
2023-05-24T09:53:42.745Z,22.23
2023-05-24T09:54:42.738Z,22.29
2023-05-24T09:55:42.701Z,22.43
2023-05-24T09:56:42.724Z,22.74
2023-05-24T09:57:42.700Z,23.02
2023-05-24T09:58:42.706Z,23.07
2023-05-24T09:59:42.653Z,22.96
2023-05-24T10:00:43.262Z,22.70
2023-05-24T10:01:42.732Z,22.79
2023-05-24T10:02:52.306Z,22.82
2023-05-24T10:03:43.260Z,22.89
2023-05-24T10:04:42.663Z,23.04
2023-05-24T10:05:42.572Z,23.16
2023-05-24T10:06:42.581Z,23.12
2023-05-24T10:07:40.625Z,22.93
2023-05-24T10:08:42.541Z,22.73
2023-05-24T10:09:42.532Z,22.43
2023-05-24T10:10:43.014Z,22.55
2023-05-24T10:11:42.586Z,22.77
2023-05-24T10:12:42.509Z,22.69
2023-05-24T10:13:42.504Z,22.59
2023-05-24T10:14:42.461Z,22.46
2023-05-24T10:15:42.529Z,22.09
2023-05-24T10:16:42.570Z,22.13
2023-05-24T10:17:42.522Z,22.14
2023-05-24T10:18:42.438Z,22.26
2023-05-24T10:19:42.413Z,21.98
2023-05-24T10:20:42.759Z,21.72
2023-05-24T10:21:42.453Z,21.67
2023-05-24T10:22:42.377Z,21.67
2023-05-24T10:23:42.365Z,21.74
2023-05-24T10:24:42.357Z,21.75
2023-05-24T10:25:42.356Z,22.08
2023-05-24T10:26:42.358Z,22.18
2023-05-24T10:27:42.309Z,22.37
2023-05-24T10:28:42.309Z,22.59
2023-05-24T10:29:42.283Z,22.81
2023-05-24T10:30:42.730Z,22.86
2023-05-24T10:31:42.426Z,22.86
2023-05-24T10:32:42.263Z,22.56
2023-05-24T10:33:42.264Z,22.41
2023-05-24T10:34:42.238Z,22.60
2023-05-24T10:35:42.242Z,22.75
2023-05-24T10:36:42.203Z,22.82
2023-05-24T10:37:42.176Z,23.01
2023-05-24T10:38:42.180Z,23.03
2023-05-24T10:39:42.164Z,23.14
2023-05-24T10:40:42.215Z,23.46
2023-05-24T10:41:42.311Z,23.89
2023-05-24T10:42:42.164Z,23.95
2023-05-24T10:43:42.433Z,23.88
2023-05-24T10:44:42.117Z,23.73
2023-05-24T10:45:42.396Z,23.84
2023-05-24T10:46:42.103Z,23.99
2023-05-24T10:47:42.104Z,24.14
2023-05-24T10:48:42.084Z,24.26
2023-05-24T10:49:42.062Z,23.91
2023-05-24T10:50:42.504Z,23.37
2023-05-24T10:51:42.127Z,23.06
2023-05-24T10:52:42.043Z,22.72
2023-05-24T10:53:42.009Z,21.89
2023-05-24T10:54:49.601Z,21.22
2023-05-24T10:55:42.946Z,21.40
2023-05-24T10:56:41.960Z,21.84
2023-05-24T10:57:40.026Z,21.79
2023-05-24T10:58:41.960Z,21.59
2023-05-24T10:59:41.940Z,21.63
2023-05-24T11:00:41.918Z,21.75
2023-05-24T11:01:41.913Z,21.77
2023-05-24T11:02:41.907Z,21.82
2023-05-24T11:03:41.898Z,21.76
2023-05-24T11:04:41.873Z,21.51
2023-05-24T11:05:43.176Z,21.37
2023-05-24T11:06:41.844Z,21.28
2023-05-24T11:07:42.115Z,21.64
2023-05-24T11:08:41.801Z,22.12
2023-05-24T11:09:41.923Z,22.85
2023-05-24T11:10:42.921Z,22.89
2023-05-24T11:11:41.810Z,23.05
2023-05-24T11:12:41.750Z,23.33
2023-05-24T11:13:41.784Z,23.53
2023-05-24T11:14:41.738Z,23.43
2023-05-24T11:15:41.721Z,23.51
2023-05-24T11:16:41.735Z,23.72
2023-05-24T11:17:43.586Z,24.13
2023-05-24T11:18:41.693Z,24.31
2023-05-24T11:19:41.669Z,24.44
2023-05-24T11:20:41.969Z,24.47
2023-05-24T11:21:41.637Z,24.67
2023-05-24T11:22:41.654Z,24.65
2023-05-24T11:23:41.659Z,24.57
2023-05-24T11:24:41.628Z,24.46
2023-05-24T11:25:41.080Z,24.31
2023-05-24T11:26:41.579Z,24.06
2023-05-24T11:27:41.581Z,23.78
2023-05-24T11:28:41.622Z,23.67
2023-05-24T11:29:41.558Z,23.48
2023-05-24T11:30:41.731Z,23.20
2023-05-24T11:31:44.081Z,23.41
2023-05-24T11:32:41.517Z,23.31
2023-05-24T11:33:41.532Z,23.50
2023-05-24T11:34:42.418Z,23.53
2023-05-24T11:35:39.640Z,23.53
2023-05-24T11:36:41.478Z,23.57
2023-05-24T11:38:41.425Z,23.57
2023-05-24T11:39:41.417Z,23.50
2023-05-24T11:40:41.612Z,23.48
2023-05-24T11:41:41.391Z,23.71
2023-05-24T11:42:42.330Z,23.97
2023-05-24T11:43:41.343Z,24.24
2023-05-24T11:44:41.344Z,24.48
2023-05-24T11:45:41.367Z,24.54
2023-05-24T11:46:41.323Z,24.66
2023-05-24T11:47:41.363Z,24.49
2023-05-24T11:48:42.255Z,24.13
2023-05-24T11:49:41.308Z,23.89
2023-05-24T11:50:49.269Z,23.62
2023-05-24T11:51:42.399Z,23.35
2023-05-24T11:52:41.618Z,23.48
2023-05-24T11:53:41.237Z,23.53
2023-05-24T11:54:41.262Z,23.83
2023-05-24T11:55:41.414Z,23.76
2023-05-24T11:56:41.216Z,23.81
2023-05-24T11:57:41.212Z,23.89
2023-05-24T11:58:41.163Z,23.78
2023-05-24T11:59:41.184Z,23.52
2023-05-24T12:00:41.376Z,23.33
2023-05-24T12:01:41.181Z,23.16
2023-05-24T12:02:41.167Z,23.01
2023-05-24T12:03:41.219Z,23.12
2023-05-24T12:04:41.132Z,23.15
2023-05-24T12:05:41.081Z,22.91
2023-05-24T12:06:41.095Z,22.75
2023-05-24T12:07:41.050Z,22.91
2023-05-24T12:08:41.252Z,23.01
2023-05-24T12:09:41.050Z,22.75
2023-05-24T12:10:41.194Z,22.66
2023-05-24T12:11:40.977Z,22.86
2023-05-24T12:12:45.775Z,23.38
2023-05-24T12:13:42.035Z,23.89
2023-05-24T12:14:41.027Z,24.51
2023-05-24T12:15:41.016Z,24.82
2023-05-24T12:16:41.002Z,24.94
2023-05-24T12:17:40.918Z,24.73
2023-05-24T12:18:55.169Z,24.39
2023-05-24T12:19:41.897Z,24.13
2023-05-24T12:20:41.098Z,23.99
2023-05-24T12:21:40.860Z,24.04
2023-05-24T12:22:40.834Z,24.32
2023-05-24T12:23:40.840Z,24.73
2023-05-24T12:24:40.861Z,25.20
2023-05-24T12:25:40.813Z,25.15
2023-05-24T12:26:40.794Z,24.93
2023-05-24T12:27:41.162Z,25.08
2023-05-24T12:28:40.771Z,25.31
2023-05-24T12:29:41.913Z,25.51
2023-05-24T12:30:40.847Z,25.64
2023-05-24T12:31:40.780Z,25.36
2023-05-24T12:32:40.775Z,24.79
2023-05-24T12:33:40.712Z,24.11
2023-05-24T12:34:40.710Z,23.70
2023-05-24T12:35:40.659Z,23.59
2023-05-24T12:36:40.674Z,23.59
2023-05-24T12:37:40.647Z,23.64
2023-05-24T12:38:40.650Z,23.47
2023-05-24T12:39:38.697Z,23.50
2023-05-24T12:40:40.699Z,23.56
2023-05-24T12:41:40.613Z,22.95
2023-05-24T12:42:40.576Z,22.69
2023-05-24T12:43:40.631Z,22.75
2023-05-24T12:44:40.559Z,22.83
2023-05-24T12:45:40.611Z,23.01
2023-05-24T12:46:40.603Z,23.23
2023-05-24T12:47:40.527Z,23.38
2023-05-24T12:48:40.507Z,23.52
2023-05-24T12:49:40.485Z,23.75
2023-05-24T12:50:40.608Z,23.99
2023-05-24T12:51:40.504Z,23.95
2023-05-24T12:52:40.451Z,23.57
2023-05-24T12:53:40.483Z,23.61
2023-05-24T12:54:40.423Z,23.51
2023-05-24T12:55:40.415Z,23.17
2023-05-24T12:56:40.387Z,23.12
2023-05-24T12:57:40.410Z,22.85
2023-05-24T12:58:40.402Z,22.60
2023-05-24T12:59:40.359Z,22.40
2023-05-24T13:00:40.485Z,22.35
2023-05-24T13:01:40.445Z,22.58
2023-05-24T13:02:40.354Z,22.82
2023-05-24T13:03:40.315Z,23.07